createdAt,value
2022-10-28T00:00:22.074Z,15.97
2022-10-28T00:01:22.101Z,16.00
2022-10-28T00:02:22.058Z,16.01
2022-10-28T00:03:22.010Z,16.00
2022-10-28T00:04:22.028Z,16.00
2022-10-28T00:05:21.986Z,15.99
2022-10-28T00:06:21.958Z,16.00
2022-10-28T00:07:21.953Z,16.01
2022-10-28T00:08:21.937Z,16.03
2022-10-28T00:09:21.941Z,16.03
2022-10-28T00:10:21.915Z,16.04
2022-10-28T00:11:21.917Z,16.06
2022-10-28T00:12:21.896Z,16.11
2022-10-28T00:13:21.892Z,16.09
2022-10-28T00:14:21.854Z,16.11
2022-10-28T00:15:21.867Z,16.07
2022-10-28T00:16:21.832Z,16.14
2022-10-28T00:17:21.837Z,16.14
2022-10-28T00:18:21.808Z,16.15
2022-10-28T00:19:21.807Z,16.12
2022-10-28T00:20:21.791Z,16.07
2022-10-28T00:21:21.804Z,16.09
2022-10-28T00:22:21.756Z,16.11
2022-10-28T00:23:21.750Z,16.11
2022-10-28T00:24:21.728Z,16.14
2022-10-28T00:25:21.724Z,16.15
2022-10-28T00:26:21.708Z,16.15
2022-10-28T00:27:21.698Z,16.14
2022-10-28T00:28:21.680Z,16.15
2022-10-28T00:29:21.668Z,16.14
2022-10-28T00:30:21.737Z,16.15
2022-10-28T00:31:21.660Z,16.12
2022-10-28T00:32:21.618Z,16.16
2022-10-28T00:33:21.708Z,16.16
2022-10-28T00:34:21.598Z,16.15
2022-10-28T00:35:21.620Z,16.14
2022-10-28T00:36:21.572Z,16.12
2022-10-28T00:37:21.562Z,16.14
2022-10-28T00:38:21.549Z,16.14
2022-10-28T00:39:21.555Z,16.14
2022-10-28T00:40:21.530Z,16.16
2022-10-28T00:41:21.515Z,16.14
2022-10-28T00:42:21.489Z,16.15
2022-10-28T00:43:21.506Z,16.12
2022-10-28T00:44:21.460Z,16.15
2022-10-28T00:45:21.467Z,16.15
2022-10-28T00:46:21.445Z,16.14
2022-10-28T00:47:21.429Z,16.12
2022-10-28T00:48:21.418Z,16.14
2022-10-28T00:49:21.405Z,16.11
2022-10-28T00:50:21.418Z,16.07
2022-10-28T00:51:21.388Z,16.09
2022-10-28T00:52:21.362Z,16.07
2022-10-28T00:53:21.350Z,16.07
2022-10-28T00:54:21.331Z,16.06
2022-10-28T00:55:21.330Z,16.06
2022-10-28T00:56:21.361Z,16.04
2022-10-28T00:57:21.299Z,16.07
2022-10-28T00:58:21.274Z,16.07
2022-10-28T00:59:21.268Z,16.07
2022-10-28T01:00:21.259Z,16.12
2022-10-28T01:01:21.355Z,16.11
2022-10-28T01:02:21.363Z,16.11
2022-10-28T01:03:21.228Z,16.09
2022-10-28T01:04:21.221Z,16.09
2022-10-28T01:05:21.195Z,16.06
2022-10-28T01:06:21.171Z,16.06
2022-10-28T01:07:21.158Z,16.04
2022-10-28T01:08:21.140Z,16.06
2022-10-28T01:09:21.191Z,16.06
2022-10-28T01:10:21.136Z,16.04
2022-10-28T01:11:21.112Z,16.01
2022-10-28T01:12:21.196Z,16.04
2022-10-28T01:13:21.107Z,16.03
2022-10-28T01:14:21.072Z,16.01
2022-10-28T01:15:21.077Z,16.00
2022-10-28T01:16:21.053Z,16.00
2022-10-28T01:17:21.042Z,15.97
2022-10-28T01:18:21.028Z,15.97
2022-10-28T01:19:21.004Z,15.94
2022-10-28T01:20:21.671Z,15.96
2022-10-28T01:21:20.980Z,15.96
2022-10-28T01:22:21.053Z,15.96
2022-10-28T01:23:20.963Z,15.93
2022-10-28T01:24:20.933Z,15.96
2022-10-28T01:25:20.941Z,15.93
2022-10-28T01:26:20.911Z,15.93
2022-10-28T01:27:20.898Z,15.93
2022-10-28T01:28:20.887Z,15.94
2022-10-28T01:29:20.899Z,15.93
2022-10-28T01:30:20.858Z,15.89
2022-10-28T01:31:20.883Z,15.88
2022-10-28T01:32:20.827Z,15.88
2022-10-28T01:33:20.819Z,15.88
2022-10-28T01:34:20.804Z,15.89
2022-10-28T01:35:20.847Z,15.88
2022-10-28T01:36:20.790Z,15.89
2022-10-28T01:37:20.766Z,15.89
2022-10-28T01:38:20.746Z,15.89
2022-10-28T01:39:20.743Z,15.86
2022-10-28T01:40:20.731Z,15.88
2022-10-28T01:41:20.743Z,15.89
2022-10-28T01:42:20.722Z,15.92
2022-10-28T01:43:20.702Z,15.88
2022-10-28T01:44:20.685Z,15.89
2022-10-28T01:45:20.679Z,15.92
2022-10-28T01:46:20.657Z,15.93
2022-10-28T01:47:20.639Z,15.92
2022-10-28T01:48:20.624Z,15.93
2022-10-28T01:49:20.615Z,15.93
2022-10-28T01:50:20.626Z,15.94
2022-10-28T01:51:20.590Z,15.93
2022-10-28T01:52:20.571Z,15.94
2022-10-28T01:53:20.564Z,15.94
2022-10-28T01:54:20.544Z,15.92
2022-10-28T01:55:20.539Z,15.89
2022-10-28T01:56:20.538Z,15.89
2022-10-28T01:57:20.504Z,15.88
2022-10-28T01:58:20.492Z,15.86
2022-10-28T01:59:20.482Z,15.85
2022-10-28T02:00:20.482Z,15.84
2022-10-28T02:01:20.557Z,15.85
2022-10-28T02:02:20.447Z,15.85
2022-10-28T02:03:20.424Z,15.86
2022-10-28T02:04:20.446Z,15.85
2022-10-28T02:05:20.436Z,15.86
2022-10-28T02:06:20.392Z,15.86
2022-10-28T02:07:20.368Z,15.88
2022-10-28T02:08:20.358Z,15.85
2022-10-28T02:09:20.342Z,15.85
2022-10-28T02:10:20.342Z,15.85
2022-10-28T02:11:20.331Z,15.85
2022-10-28T02:12:20.369Z,15.85
2022-10-28T02:13:20.291Z,15.84
2022-10-28T02:14:20.287Z,15.84
2022-10-28T02:15:20.350Z,15.82
2022-10-28T02:16:20.257Z,15.82
2022-10-28T02:17:20.237Z,15.82
2022-10-28T02:18:20.216Z,15.84
2022-10-28T02:19:20.214Z,15.82
2022-10-28T02:20:20.334Z,15.82
2022-10-28T02:21:20.206Z,15.85
2022-10-28T02:22:20.171Z,15.86
2022-10-28T02:23:20.162Z,15.86
2022-10-28T02:24:20.158Z,15.85
2022-10-28T02:25:20.212Z,15.84
2022-10-28T02:26:20.156Z,15.84
2022-10-28T02:27:20.104Z,15.82
2022-10-28T02:28:20.082Z,15.81
2022-10-28T02:29:20.210Z,15.82
2022-10-28T02:30:20.066Z,15.84
2022-10-28T02:31:20.063Z,15.82
2022-10-28T02:32:20.031Z,15.81
2022-10-28T02:33:20.024Z,15.82
2022-10-28T02:34:20.025Z,15.81
2022-10-28T02:35:20.097Z,15.76
2022-10-28T02:36:19.989Z,15.75
2022-10-28T02:37:19.985Z,15.72
2022-10-28T02:38:19.967Z,15.68
2022-10-28T02:39:19.958Z,15.63
2022-10-28T02:40:19.937Z,15.56
2022-10-28T02:41:20.054Z,15.49
2022-10-28T02:42:19.907Z,15.46
2022-10-28T02:43:19.907Z,15.48
2022-10-28T02:44:19.879Z,15.48
2022-10-28T02:45:19.905Z,15.42
2022-10-28T02:46:19.918Z,15.38
2022-10-28T02:47:19.847Z,15.28
2022-10-28T02:48:19.824Z,15.17
2022-10-28T02:49:19.820Z,15.13
2022-10-28T02:50:19.857Z,15.12
2022-10-28T02:51:19.791Z,15.08
2022-10-28T02:52:19.766Z,15.03
2022-10-28T02:53:19.796Z,14.95
2022-10-28T02:54:19.748Z,14.87
2022-10-28T02:55:19.827Z,14.83
2022-10-28T02:56:19.724Z,14.80
2022-10-28T02:57:19.715Z,14.75
2022-10-28T02:58:19.697Z,14.72
2022-10-28T02:59:19.678Z,14.69
2022-10-28T03:00:19.686Z,14.65
2022-10-28T03:01:19.967Z,14.64
2022-10-28T03:02:19.690Z,14.60
2022-10-28T03:03:19.636Z,14.57
2022-10-28T03:04:19.617Z,14.54
2022-10-28T03:05:19.597Z,14.54
2022-10-28T03:06:19.810Z,14.50
2022-10-28T03:07:19.573Z,14.47
2022-10-28T03:08:19.561Z,14.47
2022-10-28T03:09:19.558Z,14.44
2022-10-28T03:10:19.556Z,14.42
2022-10-28T03:11:19.532Z,14.38
2022-10-28T03:12:19.503Z,14.42
2022-10-28T03:13:19.503Z,14.37
2022-10-28T03:14:19.479Z,14.32
2022-10-28T03:15:19.565Z,14.31
2022-10-28T03:16:19.469Z,14.28
2022-10-28T03:17:19.437Z,14.28
2022-10-28T03:18:19.425Z,14.31
2022-10-28T03:19:19.427Z,14.29
2022-10-28T03:20:19.402Z,14.29
2022-10-28T03:21:19.494Z,14.31
2022-10-28T03:22:19.383Z,14.32
2022-10-28T03:23:19.365Z,14.31
2022-10-28T03:24:19.359Z,14.31
2022-10-28T03:25:19.336Z,14.29
2022-10-28T03:26:19.332Z,14.32
2022-10-28T03:27:19.427Z,14.29
2022-10-28T03:28:19.293Z,14.28
2022-10-28T03:29:19.287Z,14.28
2022-10-28T03:30:19.268Z,14.28
2022-10-28T03:31:19.287Z,14.28
2022-10-28T03:32:19.343Z,14.28
2022-10-28T03:33:19.246Z,14.27
2022-10-28T03:34:19.396Z,14.24
2022-10-28T03:35:19.202Z,14.25
2022-10-28T03:36:19.196Z,14.28
2022-10-28T03:37:19.176Z,14.28
2022-10-28T03:38:19.160Z,14.34
2022-10-28T03:39:19.274Z,14.32
2022-10-28T03:40:19.152Z,14.31
2022-10-28T03:41:19.139Z,14.34
2022-10-28T03:42:19.110Z,14.38
2022-10-28T03:43:19.108Z,14.38
2022-10-28T03:44:19.085Z,14.42
2022-10-28T03:45:19.205Z,14.43
2022-10-28T03:46:19.061Z,14.46
2022-10-28T03:47:19.051Z,14.46
2022-10-28T03:48:19.033Z,14.47
2022-10-28T03:49:19.049Z,14.47
2022-10-28T03:50:18.996Z,14.46
2022-10-28T03:51:18.987Z,14.46
2022-10-28T03:52:19.139Z,14.47
2022-10-28T03:53:18.975Z,14.47
2022-10-28T03:54:18.949Z,14.49
2022-10-28T03:55:18.939Z,14.46
2022-10-28T03:56:18.919Z,14.46
2022-10-28T03:57:18.918Z,14.46
2022-10-28T03:58:18.914Z,14.49
2022-10-28T03:59:20.308Z,14.47
2022-10-28T04:00:18.908Z,14.50
2022-10-28T04:01:18.932Z,14.50
2022-10-28T04:02:19.043Z,14.47
2022-10-28T04:03:18.840Z,14.49
2022-10-28T04:04:18.834Z,14.47
2022-10-28T04:05:18.808Z,14.49
2022-10-28T04:06:18.827Z,14.49
2022-10-28T04:07:18.798Z,14.49
2022-10-28T04:08:18.781Z,14.47
2022-10-28T04:09:18.758Z,14.47
2022-10-28T04:10:18.750Z,14.44
2022-10-28T04:11:18.736Z,14.44
2022-10-28T04:12:18.731Z,14.46
2022-10-28T04:13:18.699Z,14.46
2022-10-28T04:14:18.700Z,14.46
2022-10-28T04:15:18.675Z,14.49
2022-10-28T04:16:18.657Z,14.50
2022-10-28T04:17:18.692Z,14.50
2022-10-28T04:18:18.629Z,14.47
2022-10-28T04:19:18.619Z,14.47
2022-10-28T04:20:18.646Z,14.46
2022-10-28T04:21:18.593Z,14.47
2022-10-28T04:22:18.658Z,14.42
2022-10-28T04:23:18.569Z,14.37
2022-10-28T04:24:18.556Z,14.28
2022-10-28T04:25:18.548Z,14.25
2022-10-28T04:26:18.541Z,14.27
2022-10-28T04:27:18.784Z,14.27
2022-10-28T04:28:18.498Z,14.25
2022-10-28T04:29:18.489Z,14.25
2022-10-28T04:30:18.480Z,14.28
2022-10-28T04:31:18.466Z,14.27
2022-10-28T04:32:18.476Z,14.28
2022-10-28T04:33:18.448Z,14.25
2022-10-28T04:34:18.428Z,14.27
2022-10-28T04:35:18.425Z,14.24
2022-10-28T04:36:18.401Z,14.21
2022-10-28T04:37:20.288Z,14.19
2022-10-28T04:38:18.415Z,14.20
2022-10-28T04:39:18.355Z,14.20
2022-10-28T04:40:18.342Z,14.25
2022-10-28T04:41:18.331Z,14.28
2022-10-28T04:42:18.340Z,14.29
2022-10-28T04:43:18.296Z,14.29
2022-10-28T04:44:18.287Z,14.32
2022-10-28T04:45:18.282Z,14.34
2022-10-28T04:46:18.301Z,14.34
2022-10-28T04:47:18.274Z,14.34
2022-10-28T04:48:18.248Z,14.31
2022-10-28T04:49:18.226Z,14.31
2022-10-28T04:50:18.212Z,14.31
2022-10-28T04:51:18.196Z,14.29
2022-10-28T04:52:18.200Z,14.28
2022-10-28T04:53:18.169Z,14.25
2022-10-28T04:54:18.157Z,14.24
2022-10-28T04:55:18.145Z,14.20
2022-10-28T04:56:18.129Z,14.16
2022-10-28T04:57:18.133Z,14.13
2022-10-28T04:58:18.112Z,14.14
2022-10-28T04:59:18.122Z,14.16
2022-10-28T05:00:18.079Z,14.16
2022-10-28T05:01:18.193Z,14.17
2022-10-28T05:02:18.241Z,14.14
2022-10-28T05:03:18.037Z,14.10
2022-10-28T05:04:18.028Z,14.10
2022-10-28T05:05:18.014Z,14.10
2022-10-28T05:06:18.022Z,14.09
2022-10-28T05:07:21.201Z,14.09
2022-10-28T05:08:18.991Z,14.06
2022-10-28T05:09:17.955Z,14.04
2022-10-28T05:10:17.959Z,14.07
2022-10-28T05:11:17.944Z,14.07
2022-10-28T05:12:17.963Z,14.06
2022-10-28T05:13:17.897Z,14.07
2022-10-28T05:14:17.898Z,14.12
2022-10-28T05:15:17.875Z,14.14
2022-10-28T05:16:17.871Z,14.16
2022-10-28T05:17:18.531Z,14.17
2022-10-28T05:18:17.844Z,14.19
2022-10-28T05:19:17.824Z,14.17
2022-10-28T05:20:17.836Z,14.17
2022-10-28T05:21:17.801Z,14.17
2022-10-28T05:22:17.825Z,14.14
2022-10-28T05:23:17.771Z,14.16
2022-10-28T05:24:17.757Z,14.17
2022-10-28T05:25:17.761Z,14.16
2022-10-28T05:26:17.729Z,14.16
2022-10-28T05:27:17.728Z,14.13
2022-10-28T05:28:17.707Z,14.14
2022-10-28T05:29:17.698Z,14.17
2022-10-28T05:30:17.712Z,14.16
2022-10-28T05:31:17.670Z,14.13
2022-10-28T05:32:17.671Z,14.14
2022-10-28T05:33:17.641Z,14.13
2022-10-28T05:34:17.633Z,14.12
2022-10-28T05:35:17.605Z,14.09
2022-10-28T05:36:17.594Z,14.09
2022-10-28T05:37:17.605Z,14.06
2022-10-28T05:38:17.583Z,14.07
2022-10-28T05:39:17.557Z,14.07
2022-10-28T05:40:17.544Z,14.07
2022-10-28T05:41:17.535Z,14.02
2022-10-28T05:42:17.535Z,14.01
2022-10-28T05:43:17.507Z,13.99
2022-10-28T05:44:17.495Z,13.98
2022-10-28T05:45:17.644Z,13.96
2022-10-28T05:46:17.469Z,13.95
2022-10-28T05:47:17.471Z,13.95
2022-10-28T05:48:17.431Z,13.96
2022-10-28T05:49:17.416Z,13.95
2022-10-28T05:50:17.414Z,13.94
2022-10-28T05:51:17.404Z,13.95
2022-10-28T05:52:17.421Z,13.94
2022-10-28T05:53:17.376Z,13.95
2022-10-28T05:54:17.356Z,13.99
2022-10-28T05:55:17.335Z,13.95
2022-10-28T05:56:17.344Z,13.94
2022-10-28T05:57:17.355Z,13.91
2022-10-28T05:58:17.324Z,13.91
2022-10-28T05:59:17.287Z,13.88
2022-10-28T06:00:17.295Z,13.89
2022-10-28T06:01:17.429Z,13.87
2022-10-28T06:02:17.268Z,13.87
2022-10-28T06:03:17.285Z,13.84
2022-10-28T06:04:17.322Z,13.84
2022-10-28T06:05:17.224Z,13.84
2022-10-28T06:06:17.194Z,13.83
2022-10-28T06:07:17.196Z,13.80
2022-10-28T06:08:17.189Z,13.81
2022-10-28T06:09:17.164Z,13.81
2022-10-28T06:10:17.146Z,13.83
2022-10-28T06:11:15.586Z,13.83
2022-10-28T06:12:15.596Z,13.87
2022-10-28T06:13:15.588Z,13.89
2022-10-28T06:14:15.574Z,13.91
2022-10-28T06:15:15.543Z,13.91
2022-10-28T06:16:15.537Z,13.91
2022-10-28T06:17:15.567Z,13.94
2022-10-28T06:18:18.174Z,13.98
2022-10-28T06:19:15.495Z,14.01
2022-10-28T06:20:15.496Z,14.06
2022-10-28T06:21:15.478Z,14.09
2022-10-28T06:22:15.466Z,14.10
2022-10-28T06:23:15.454Z,14.12
2022-10-28T06:24:15.451Z,14.13
2022-10-28T06:25:15.415Z,14.16
2022-10-28T06:26:15.428Z,14.17
2022-10-28T06:27:15.400Z,14.19
2022-10-28T06:28:15.384Z,14.19
2022-10-28T06:29:15.363Z,14.21
2022-10-28T06:30:15.401Z,14.21
2022-10-28T06:31:15.362Z,14.24
2022-10-28T06:32:15.363Z,14.25
2022-10-28T06:33:15.360Z,14.25
2022-10-28T06:34:15.308Z,14.27
2022-10-28T06:35:15.296Z,14.27
2022-10-28T06:36:15.285Z,14.28
2022-10-28T06:37:15.279Z,14.27
2022-10-28T06:38:15.263Z,14.28
2022-10-28T06:39:15.285Z,14.31
2022-10-28T06:40:15.273Z,14.32
2022-10-28T06:41:15.225Z,14.28
2022-10-28T06:42:15.237Z,14.29
2022-10-28T06:43:15.238Z,14.31
2022-10-28T06:44:15.205Z,14.29
2022-10-28T06:45:15.194Z,14.31
2022-10-28T06:46:15.238Z,14.34
2022-10-28T06:47:16.665Z,14.32
2022-10-28T06:48:16.670Z,14.35
2022-10-28T06:49:16.659Z,14.38
2022-10-28T06:50:16.646Z,14.39
2022-10-28T06:51:16.703Z,14.39
2022-10-28T06:52:16.621Z,14.38
2022-10-28T06:53:16.597Z,14.39
2022-10-28T06:54:16.677Z,14.43
2022-10-28T06:55:16.576Z,14.43
2022-10-28T06:56:16.594Z,14.43
2022-10-28T06:57:16.554Z,14.43
2022-10-28T06:58:16.582Z,14.46
2022-10-28T06:59:16.512Z,14.44
2022-10-28T07:00:16.584Z,14.46
2022-10-28T07:01:16.714Z,14.44
2022-10-28T07:02:16.635Z,14.47
2022-10-28T07:03:16.478Z,14.49
2022-10-28T07:04:16.463Z,14.52
2022-10-28T07:05:16.432Z,14.54
2022-10-28T07:06:16.490Z,14.54
2022-10-28T07:07:16.411Z,14.54
2022-10-28T07:08:16.407Z,14.53
2022-10-28T07:09:16.390Z,14.53
2022-10-28T07:10:16.389Z,14.50
2022-10-28T07:11:16.478Z,14.53
2022-10-28T07:13:16.399Z,14.60
2022-10-28T07:14:16.339Z,14.57
2022-10-28T07:15:16.333Z,14.57
2022-10-28T07:16:16.305Z,14.60
2022-10-28T07:17:16.289Z,14.60
2022-10-28T07:18:16.328Z,14.64
2022-10-28T07:19:20.326Z,14.64
2022-10-28T07:20:17.289Z,14.67
2022-10-28T07:21:16.234Z,14.68
2022-10-28T07:22:16.243Z,14.71
2022-10-28T07:23:16.228Z,14.72
2022-10-28T07:24:16.352Z,14.75
2022-10-28T07:25:16.196Z,14.80
2022-10-28T07:26:16.206Z,14.80
2022-10-28T07:27:16.186Z,14.83
2022-10-28T07:28:16.170Z,14.86
2022-10-28T07:29:16.273Z,14.87
2022-10-28T07:30:16.144Z,14.91
2022-10-28T07:31:16.116Z,14.94
2022-10-28T07:32:16.116Z,14.98
2022-10-28T07:33:16.104Z,14.99
2022-10-28T07:34:16.225Z,15.03
2022-10-28T07:35:16.074Z,15.05
2022-10-28T07:36:16.073Z,15.08
2022-10-28T07:37:16.050Z,15.12
2022-10-28T07:38:16.136Z,15.15
2022-10-28T07:39:16.005Z,15.19
2022-10-28T07:40:16.007Z,15.21
2022-10-28T07:41:16.021Z,15.24
2022-10-28T07:42:15.975Z,15.27
2022-10-28T07:43:15.994Z,15.28
2022-10-28T07:44:15.943Z,15.31
2022-10-28T07:45:15.945Z,15.36
2022-10-28T07:46:15.956Z,15.41
2022-10-28T07:47:16.004Z,15.42
2022-10-28T07:48:15.918Z,15.46
2022-10-28T07:49:15.871Z,15.46
2022-10-28T07:50:15.874Z,15.51
2022-10-28T07:51:15.907Z,15.52
2022-10-28T07:52:15.838Z,15.57
2022-10-28T07:54:15.814Z,15.63
2022-10-28T07:55:15.801Z,15.66
2022-10-28T07:56:15.919Z,15.70
2022-10-28T07:57:15.794Z,15.72
2022-10-28T07:58:15.820Z,15.75
2022-10-28T07:59:15.738Z,15.78
2022-10-28T08:00:15.761Z,15.79
2022-10-28T08:01:15.871Z,15.81
2022-10-28T08:02:15.776Z,15.85
2022-10-28T08:03:15.782Z,15.85
2022-10-28T08:04:15.673Z,15.88
2022-10-28T08:05:15.660Z,15.92
2022-10-28T08:06:15.664Z,15.96
2022-10-28T08:07:15.617Z,15.99
2022-10-28T08:08:15.683Z,16.03
2022-10-28T08:09:15.590Z,16.06
2022-10-28T08:10:15.574Z,16.09
2022-10-28T08:11:15.647Z,16.11
2022-10-28T08:12:15.566Z,16.15
2022-10-28T08:13:15.604Z,16.18
2022-10-28T08:14:15.521Z,16.22
2022-10-28T08:15:15.499Z,16.26
2022-10-28T08:16:15.490Z,16.30
2022-10-28T08:17:15.500Z,16.33
2022-10-28T08:18:15.564Z,16.35
2022-10-28T08:19:15.463Z,16.37
2022-10-28T08:20:15.426Z,16.41
2022-10-28T08:21:15.412Z,16.44
2022-10-28T08:22:15.450Z,16.48
2022-10-28T08:23:15.433Z,16.50
2022-10-28T08:24:15.387Z,16.53
2022-10-28T08:25:15.365Z,16.58
2022-10-28T08:26:15.361Z,16.60
2022-10-28T08:27:15.480Z,16.62
2022-10-28T08:28:15.348Z,16.67
2022-10-28T08:29:15.314Z,16.70
2022-10-28T08:30:15.302Z,16.73
2022-10-28T08:31:15.303Z,16.73
2022-10-28T08:32:15.332Z,16.77
2022-10-28T08:33:15.298Z,16.78
2022-10-28T08:34:15.305Z,16.81
2022-10-28T08:35:15.239Z,16.81
2022-10-28T08:36:15.225Z,16.86
2022-10-28T08:37:15.316Z,16.89
2022-10-28T08:38:15.200Z,16.92
2022-10-28T08:39:15.185Z,16.95
2022-10-28T08:40:15.175Z,16.99
2022-10-28T08:41:15.231Z,17.03
2022-10-28T08:42:15.143Z,17.13
2022-10-28T08:43:15.141Z,17.18
2022-10-28T08:44:15.107Z,17.23
2022-10-28T08:45:15.999Z,17.30
2022-10-28T08:46:15.072Z,17.36
2022-10-28T08:47:15.066Z,17.38
2022-10-28T08:48:15.085Z,17.47
2022-10-28T08:49:15.098Z,17.51
2022-10-28T08:50:15.027Z,17.63
2022-10-28T08:51:15.016Z,17.70
2022-10-28T08:52:14.998Z,17.74
2022-10-28T08:53:15.026Z,17.78
2022-10-28T08:54:15.006Z,17.84
2022-10-28T08:55:14.961Z,17.89
2022-10-28T08:56:15.009Z,17.95
2022-10-28T08:57:17.968Z,18.00
2022-10-28T08:58:14.929Z,18.03
2022-10-28T08:59:14.929Z,18.07
2022-10-28T09:00:14.897Z,18.17
2022-10-28T09:01:15.132Z,18.21
2022-10-28T09:02:14.883Z,18.28
2022-10-28T09:03:14.924Z,18.36
2022-10-28T09:04:14.880Z,18.44
2022-10-28T09:05:14.822Z,18.47
2022-10-28T09:06:14.818Z,18.52
2022-10-28T09:07:14.808Z,18.57
2022-10-28T09:08:14.831Z,18.65
2022-10-28T09:09:14.791Z,18.67
2022-10-28T09:10:14.760Z,18.67
2022-10-28T09:11:14.759Z,18.67
2022-10-28T09:12:14.800Z,18.70
2022-10-28T09:13:14.748Z,18.70
2022-10-28T09:14:14.710Z,18.76
2022-10-28T09:15:14.703Z,18.80
2022-10-28T09:16:16.160Z,18.90
2022-10-28T09:17:14.686Z,18.90
2022-10-28T09:18:14.666Z,18.94
2022-10-28T09:19:14.664Z,19.05
2022-10-28T09:20:14.633Z,19.06
2022-10-28T09:21:14.735Z,19.08
2022-10-28T09:22:18.445Z,19.13
2022-10-28T09:23:15.628Z,19.13
2022-10-28T09:24:14.604Z,19.17
2022-10-28T09:25:14.638Z,19.23
2022-10-28T09:26:14.547Z,19.28
2022-10-28T09:27:14.539Z,19.35
2022-10-28T09:28:14.728Z,19.39
2022-10-28T09:29:14.651Z,19.47
2022-10-28T09:30:14.501Z,19.51
2022-10-28T09:31:14.485Z,19.57
2022-10-28T09:32:14.481Z,19.58
2022-10-28T09:33:14.511Z,19.60
2022-10-28T09:34:14.443Z,19.63
2022-10-28T09:35:14.534Z,19.72
2022-10-28T09:36:14.514Z,19.73
2022-10-28T09:37:14.411Z,19.79
2022-10-28T09:38:14.411Z,19.87
2022-10-28T09:39:14.458Z,19.88
2022-10-28T09:40:14.364Z,19.91
2022-10-28T09:41:14.365Z,19.95
2022-10-28T09:42:14.330Z,20.03
2022-10-28T09:43:14.351Z,20.02
2022-10-28T09:44:14.491Z,20.08
2022-10-28T09:45:14.356Z,20.15
2022-10-28T09:46:14.315Z,20.20
2022-10-28T09:47:14.275Z,20.27
2022-10-28T09:48:14.313Z,20.30
2022-10-28T09:49:14.251Z,20.28
2022-10-28T09:50:14.260Z,20.34
2022-10-28T09:51:14.219Z,20.35
2022-10-28T09:52:16.020Z,20.42
2022-10-28T09:53:14.230Z,20.42
2022-10-28T09:54:14.182Z,20.47
2022-10-28T09:55:14.189Z,20.35
2022-10-28T09:56:14.162Z,20.41
2022-10-28T09:57:16.514Z,20.51
2022-10-28T09:58:14.206Z,20.56
2022-10-28T09:59:14.131Z,20.50
2022-10-28T10:00:14.106Z,20.59
2022-10-28T10:01:14.150Z,20.71
2022-10-28T10:02:14.101Z,20.74
2022-10-28T10:03:14.091Z,20.71
2022-10-28T10:04:14.044Z,20.61
2022-10-28T10:05:16.892Z,20.62
2022-10-28T10:06:14.018Z,20.71
2022-10-28T10:07:14.185Z,20.65
2022-10-28T10:08:13.999Z,20.77
2022-10-28T10:09:13.975Z,20.87
2022-10-28T10:10:13.964Z,20.90
2022-10-28T10:11:13.977Z,20.99
2022-10-28T10:12:13.939Z,20.87
2022-10-28T10:13:14.061Z,20.77
2022-10-28T10:14:13.911Z,20.83
2022-10-28T10:15:14.032Z,20.86
2022-10-28T10:16:13.891Z,20.83
2022-10-28T10:17:13.876Z,20.90
2022-10-28T10:18:13.865Z,20.91
2022-10-28T10:19:13.854Z,20.96
2022-10-28T10:20:13.958Z,20.93
2022-10-28T10:21:13.830Z,20.96
2022-10-28T10:22:13.806Z,21.02
2022-10-28T10:23:13.807Z,21.04
2022-10-28T10:24:13.797Z,21.19
2022-10-28T10:25:13.832Z,21.29
2022-10-28T10:26:13.750Z,21.35
2022-10-28T10:27:13.765Z,21.41
2022-10-28T10:28:13.791Z,21.45
2022-10-28T10:29:13.714Z,21.50
2022-10-28T10:30:13.704Z,21.51
2022-10-28T10:31:13.690Z,21.54
2022-10-28T10:32:13.774Z,21.71
2022-10-28T10:33:13.698Z,21.79
2022-10-28T10:34:13.642Z,21.97
2022-10-28T10:35:13.639Z,22.04
2022-10-28T10:36:13.617Z,22.06
2022-10-28T10:37:13.699Z,21.98
2022-10-28T10:38:13.602Z,21.94
2022-10-28T10:39:13.582Z,21.90
2022-10-28T10:40:13.569Z,21.83
2022-10-28T10:41:13.571Z,21.75
2022-10-28T10:42:13.638Z,21.66
2022-10-28T10:43:14.117Z,21.85
2022-10-28T10:44:13.515Z,22.01
2022-10-28T10:45:13.507Z,22.02
2022-10-28T10:46:13.595Z,22.07
2022-10-28T10:47:13.494Z,22.09
2022-10-28T10:48:13.465Z,22.01
2022-10-28T10:49:13.448Z,21.90
2022-10-28T10:50:13.484Z,21.94
2022-10-28T10:51:13.425Z,22.06
2022-10-28T10:52:13.426Z,22.19
2022-10-28T10:53:13.472Z,22.28
2022-10-28T10:54:13.377Z,22.29
2022-10-28T10:55:13.376Z,22.17
2022-10-28T10:56:13.362Z,22.23
2022-10-28T10:57:13.353Z,22.31
2022-10-28T10:58:13.425Z,22.41
2022-10-28T10:59:13.329Z,22.23
2022-10-28T11:00:13.307Z,22.25
2022-10-28T11:01:13.429Z,22.22
2022-10-28T11:02:13.374Z,22.23
2022-10-28T11:03:13.359Z,22.37
2022-10-28T11:04:13.256Z,22.52
2022-10-28T11:05:13.263Z,22.49
2022-10-28T11:06:28.471Z,22.47
2022-10-28T11:07:14.229Z,22.43
2022-10-28T11:08:13.272Z,22.53
2022-10-28T11:10:13.217Z,22.59
2022-10-28T11:11:13.184Z,22.35
2022-10-28T11:12:13.155Z,22.38
2022-10-28T11:13:13.146Z,22.50
2022-10-28T11:14:13.151Z,22.43
2022-10-28T11:15:13.170Z,22.54
2022-10-28T11:16:13.091Z,22.72
2022-10-28T11:17:13.141Z,22.87
2022-10-28T11:18:13.075Z,22.82
2022-10-28T11:19:13.055Z,22.84
2022-10-28T11:20:13.135Z,22.86
2022-10-28T11:21:13.103Z,22.97
2022-10-28T11:22:13.039Z,22.96
2022-10-28T11:23:13.027Z,22.97
2022-10-28T11:24:12.993Z,23.05
2022-10-28T11:25:13.097Z,23.08
2022-10-28T11:26:12.971Z,23.02
2022-10-28T11:27:12.974Z,23.09
2022-10-28T11:28:12.946Z,23.09
2022-10-28T11:29:13.016Z,23.12
2022-10-28T11:30:12.913Z,23.04
2022-10-28T11:31:12.901Z,22.93
2022-10-28T11:32:12.886Z,22.78
2022-10-28T11:33:29.305Z,22.74
2022-10-28T11:34:13.861Z,22.83
2022-10-28T11:35:12.913Z,22.77
2022-10-28T11:36:12.834Z,22.82
2022-10-28T11:37:12.830Z,22.87
2022-10-28T11:38:12.814Z,23.08
2022-10-28T11:39:12.813Z,23.02
2022-10-28T11:40:12.792Z,22.87
2022-10-28T11:41:12.782Z,22.86
2022-10-28T11:42:12.756Z,22.82
2022-10-28T11:43:12.754Z,22.65
2022-10-28T11:44:12.733Z,22.68
2022-10-28T11:45:12.724Z,22.72
2022-10-28T11:46:12.704Z,22.78
2022-10-28T11:47:12.687Z,22.72
2022-10-28T11:48:12.668Z,22.72
2022-10-28T11:49:12.688Z,22.68
2022-10-28T11:50:12.709Z,22.56
2022-10-28T11:51:12.645Z,22.47
2022-10-28T11:52:12.618Z,22.54
2022-10-28T11:53:12.616Z,22.64
2022-10-28T11:54:12.644Z,22.65
2022-10-28T11:55:12.597Z,22.59
2022-10-28T11:56:12.561Z,22.52
2022-10-28T11:57:12.551Z,22.54
2022-10-28T11:59:12.547Z,22.57
2022-10-28T12:00:12.597Z,22.53
2022-10-28T12:01:12.551Z,22.56
2022-10-28T12:02:12.622Z,22.56
2022-10-28T12:03:12.615Z,22.67
2022-10-28T12:04:12.473Z,22.72
2022-10-28T12:05:12.461Z,22.64
2022-10-28T12:06:12.426Z,22.64
2022-10-28T12:07:12.415Z,22.68
2022-10-28T12:08:12.415Z,22.72
2022-10-28T12:09:12.411Z,22.78
2022-10-28T12:10:12.443Z,22.99
2022-10-28T12:11:12.362Z,23.11
2022-10-28T12:12:12.351Z,23.23
2022-10-28T12:13:12.379Z,23.32
2022-10-28T12:14:12.350Z,23.52
2022-10-28T12:15:12.314Z,23.70
2022-10-28T12:16:12.305Z,23.82
2022-10-28T12:17:12.296Z,23.90
2022-10-28T12:18:12.274Z,23.83
2022-10-28T12:19:12.273Z,23.83
2022-10-28T12:20:12.362Z,23.87
2022-10-28T12:21:12.286Z,23.89
2022-10-28T12:22:12.231Z,23.92
2022-10-28T12:23:12.204Z,23.94
2022-10-28T12:24:12.208Z,23.68
2022-10-28T12:25:12.251Z,23.64
2022-10-28T12:26:12.169Z,23.55
2022-10-28T12:27:15.365Z,23.57
2022-10-28T12:28:13.228Z,23.58
2022-10-28T12:29:12.158Z,23.60
2022-10-28T12:30:12.169Z,23.57
2022-10-28T12:31:12.110Z,23.55
2022-10-28T12:32:12.115Z,23.58
2022-10-28T12:33:12.133Z,23.61
2022-10-28T12:34:12.069Z,23.61
2022-10-28T12:35:12.075Z,23.61
2022-10-28T12:36:12.037Z,23.64
2022-10-28T12:37:12.031Z,23.75
2022-10-28T12:38:12.006Z,23.77
2022-10-28T12:39:12.002Z,23.77
2022-10-28T12:40:12.027Z,23.70
2022-10-28T12:41:11.972Z,23.62
2022-10-28T12:42:11.960Z,23.31
2022-10-28T12:43:11.959Z,23.27
2022-10-28T12:44:11.937Z,23.35
2022-10-28T12:45:11.919Z,23.45
2022-10-28T12:46:11.937Z,23.49
2022-10-28T12:47:11.897Z,23.38
2022-10-28T12:48:11.887Z,23.35
2022-10-28T12:49:11.868Z,23.40
2022-10-28T12:50:11.853Z,23.52
2022-10-28T12:51:11.838Z,23.65
2022-10-28T12:52:11.828Z,23.83
2022-10-28T12:53:11.830Z,23.89
2022-10-28T12:54:11.809Z,24.01
2022-10-28T12:55:11.814Z,24.04
2022-10-28T12:56:11.927Z,24.14